<?xml version="1.0" encoding="UTF-8" standalone="no" ?>
<gpx xmlns="http://www.topografix.com/GPX/1/1" xmlns:xsi="http://www.w3.org/2001/XMLSchema-instance" xsi:schemaLocation="http://www.topografix.com/GPX/1/1 http://www.topografix.com/GPX/1/1/gpx.xsd" version="1.1" creator="VisuGPX - https://www.visugpx.com">
  <metadata>
    <name>lacapelle multitrace</name>
  </metadata>
  <trk>
    <name><![CDATA[12330457-las pâtras]]></name>
    <extensions>
      <line xmlns="http://www.topografix.com/GPX/gpx_style/0/2">
        <color>00FF00</color>
        <width>4</width>
      </line>
    </extensions>
    <trkseg>
      <trkpt lat="44.60055" lon="0.89482">
        <ele>173</ele>
        <time>2020-12-13T20:11:28Z</time>
      </trkpt>
      <trkpt lat="44.60075" lon="0.89504">
        <ele>173</ele>
        <time>2020-12-13T20:11:34Z</time>
      </trkpt>
      <trkpt lat="44.60094" lon="0.89442">
        <ele>173</ele>
        <time>2020-12-13T20:11:45Z</time>
      </trkpt>
      <trkpt lat="44.60107" lon="0.89414">
        <ele>172</ele>
        <time>2020-12-13T20:11:51Z</time>
      </trkpt>
      <trkpt lat="44.60119" lon="0.89371">
        <ele>173</ele>
        <time>2020-12-13T20:11:58Z</time>
      </trkpt>
      <trkpt lat="44.60127" lon="0.89323">
        <ele>174</ele>
        <time>2020-12-13T20:12:07Z</time>
      </trkpt>
      <trkpt lat="44.60127" lon="0.89311">
        <ele>174</ele>
        <time>2020-12-13T20:12:09Z</time>
      </trkpt>
      <trkpt lat="44.60161" lon="0.89304">
        <ele>172</ele>
        <time>2020-12-13T20:12:17Z</time>
      </trkpt>
      <trkpt lat="44.60174" lon="0.89294">
        <ele>172</ele>
        <time>2020-12-13T20:12:20Z</time>
      </trkpt>
      <trkpt lat="44.60186" lon="0.89277">
        <ele>172</ele>
        <time>2020-12-13T20:12:24Z</time>
      </trkpt>
      <trkpt lat="44.60208" lon="0.89256">
        <ele>173</ele>
        <time>2020-12-13T20:12:30Z</time>
      </trkpt>
      <trkpt lat="44.60247" lon="0.89241">
        <ele>173</ele>
        <time>2020-12-13T20:12:40Z</time>
      </trkpt>
      <trkpt lat="44.60274" lon="0.89234">
        <ele>174</ele>
        <time>2020-12-13T20:12:46Z</time>
      </trkpt>
      <trkpt lat="44.60295" lon="0.89218">
        <ele>173</ele>
        <time>2020-12-13T20:12:52Z</time>
      </trkpt>
      <trkpt lat="44.60309" lon="0.89191">
        <ele>172</ele>
        <time>2020-12-13T20:12:57Z</time>
      </trkpt>
      <trkpt lat="44.6033" lon="0.8917">
        <ele>172</ele>
        <time>2020-12-13T20:13:03Z</time>
      </trkpt>
      <trkpt lat="44.60366" lon="0.89143">
        <ele>174</ele>
        <time>2020-12-13T20:13:13Z</time>
      </trkpt>
      <trkpt lat="44.60397" lon="0.89118">
        <ele>176</ele>
        <time>2020-12-13T20:13:21Z</time>
      </trkpt>
      <trkpt lat="44.60436" lon="0.89084">
        <ele>178</ele>
        <time>2020-12-13T20:13:32Z</time>
      </trkpt>
      <trkpt lat="44.60459" lon="0.89056">
        <ele>179</ele>
        <time>2020-12-13T20:13:39Z</time>
      </trkpt>
      <trkpt lat="44.60487" lon="0.89054">
        <ele>179</ele>
        <time>2020-12-13T20:13:46Z</time>
      </trkpt>
      <trkpt lat="44.60543" lon="0.89027">
        <ele>180</ele>
        <time>2020-12-13T20:13:59Z</time>
      </trkpt>
      <trkpt lat="44.60594" lon="0.89003">
        <ele>181</ele>
        <time>2020-12-13T20:14:12Z</time>
      </trkpt>
      <trkpt lat="44.60621" lon="0.89">
        <ele>182</ele>
        <time>2020-12-13T20:14:18Z</time>
      </trkpt>
      <trkpt lat="44.60659" lon="0.88987">
        <ele>184</ele>
        <time>2020-12-13T20:14:27Z</time>
      </trkpt>
      <trkpt lat="44.60718" lon="0.88961">
        <ele>186</ele>
        <time>2020-12-13T20:14:42Z</time>
      </trkpt>
      <trkpt lat="44.60763" lon="0.88934">
        <ele>187</ele>
        <time>2020-12-13T20:14:53Z</time>
      </trkpt>
      <trkpt lat="44.60818" lon="0.889">
        <ele>188</ele>
        <time>2020-12-13T20:15:07Z</time>
      </trkpt>
      <trkpt lat="44.60867" lon="0.88864">
        <ele>187</ele>
        <time>2020-12-13T20:15:20Z</time>
      </trkpt>
      <trkpt lat="44.60925" lon="0.88827">
        <ele>187</ele>
        <time>2020-12-13T20:15:35Z</time>
      </trkpt>
      <trkpt lat="44.60984" lon="0.88778">
        <ele>191</ele>
        <time>2020-12-13T20:15:51Z</time>
      </trkpt>
      <trkpt lat="44.61031" lon="0.88732">
        <ele>191</ele>
        <time>2020-12-13T20:16:04Z</time>
      </trkpt>
      <trkpt lat="44.61035" lon="0.88688">
        <ele>190</ele>
        <time>2020-12-13T20:16:12Z</time>
      </trkpt>
      <trkpt lat="44.61033" lon="0.88602">
        <ele>192</ele>
        <time>2020-12-13T20:16:26Z</time>
      </trkpt>
      <trkpt lat="44.61036" lon="0.88558">
        <ele>195</ele>
        <time>2020-12-13T20:16:33Z</time>
      </trkpt>
      <trkpt lat="44.61023" lon="0.88533">
        <ele>196</ele>
        <time>2020-12-13T20:16:39Z</time>
      </trkpt>
      <trkpt lat="44.61004" lon="0.88509">
        <ele>197</ele>
        <time>2020-12-13T20:16:45Z</time>
      </trkpt>
      <trkpt lat="44.60993" lon="0.88481">
        <ele>200</ele>
        <time>2020-12-13T20:16:50Z</time>
      </trkpt>
      <trkpt lat="44.60982" lon="0.88445">
        <ele>204</ele>
        <time>2020-12-13T20:16:56Z</time>
      </trkpt>
      <trkpt lat="44.60977" lon="0.88424">
        <ele>207</ele>
        <time>2020-12-13T20:17:00Z</time>
      </trkpt>
      <trkpt lat="44.60944" lon="0.88405">
        <ele>209</ele>
        <time>2020-12-13T20:17:08Z</time>
      </trkpt>
      <trkpt lat="44.60932" lon="0.88375">
        <ele>210</ele>
        <time>2020-12-13T20:17:14Z</time>
      </trkpt>
      <trkpt lat="44.60839" lon="0.88343">
        <ele>210</ele>
        <time>2020-12-13T20:17:37Z</time>
      </trkpt>
      <trkpt lat="44.60833" lon="0.88289">
        <ele>207</ele>
        <time>2020-12-13T20:17:46Z</time>
      </trkpt>
      <trkpt lat="44.60835" lon="0.88241">
        <ele>204</ele>
        <time>2020-12-13T20:17:54Z</time>
      </trkpt>
      <trkpt lat="44.60835" lon="0.88157">
        <ele>198</ele>
        <time>2020-12-13T20:18:08Z</time>
      </trkpt>
      <trkpt lat="44.60751" lon="0.88157">
        <ele>197</ele>
        <time>2020-12-13T20:18:27Z</time>
      </trkpt>
      <trkpt lat="44.60704" lon="0.88147">
        <ele>199</ele>
        <time>2020-12-13T20:18:38Z</time>
      </trkpt>
      <trkpt lat="44.60671" lon="0.88115">
        <ele>197</ele>
        <time>2020-12-13T20:18:48Z</time>
      </trkpt>
      <trkpt lat="44.60648" lon="0.88059">
        <ele>193</ele>
        <time>2020-12-13T20:18:58Z</time>
      </trkpt>
      <trkpt lat="44.60616" lon="0.87984">
        <ele>190</ele>
        <time>2020-12-13T20:19:13Z</time>
      </trkpt>
      <trkpt lat="44.6059" lon="0.879">
        <ele>186</ele>
        <time>2020-12-13T20:19:28Z</time>
      </trkpt>
      <trkpt lat="44.60606" lon="0.87853">
        <ele>181</ele>
        <time>2020-12-13T20:19:37Z</time>
      </trkpt>
      <trkpt lat="44.60643" lon="0.87785">
        <ele>173</ele>
        <time>2020-12-13T20:19:51Z</time>
      </trkpt>
      <trkpt lat="44.60663" lon="0.87785">
        <ele>172</ele>
        <time>2020-12-13T20:19:56Z</time>
      </trkpt>
      <trkpt lat="44.60693" lon="0.87737">
        <ele>170</ele>
        <time>2020-12-13T20:20:06Z</time>
      </trkpt>
      <trkpt lat="44.6072" lon="0.87645">
        <ele>166</ele>
        <time>2020-12-13T20:20:23Z</time>
      </trkpt>
      <trkpt lat="44.60747" lon="0.87607">
        <ele>164</ele>
        <time>2020-12-13T20:20:32Z</time>
      </trkpt>
      <trkpt lat="44.60779" lon="0.87614">
        <ele>166</ele>
        <time>2020-12-13T20:20:39Z</time>
      </trkpt>
      <trkpt lat="44.60827" lon="0.87583">
        <ele>167</ele>
        <time>2020-12-13T20:20:52Z</time>
      </trkpt>
      <trkpt lat="44.60859" lon="0.87542">
        <ele>165</ele>
        <time>2020-12-13T20:21:02Z</time>
      </trkpt>
      <trkpt lat="44.60876" lon="0.87464">
        <ele>164</ele>
        <time>2020-12-13T20:21:15Z</time>
      </trkpt>
      <trkpt lat="44.60909" lon="0.87385">
        <ele>168</ele>
        <time>2020-12-13T20:21:31Z</time>
      </trkpt>
      <trkpt lat="44.60974" lon="0.87282">
        <ele>172</ele>
        <time>2020-12-13T20:21:53Z</time>
      </trkpt>
      <trkpt lat="44.61038" lon="0.87148">
        <ele>175</ele>
        <time>2020-12-13T20:22:20Z</time>
      </trkpt>
      <trkpt lat="44.61045" lon="0.8705">
        <ele>177</ele>
        <time>2020-12-13T20:22:37Z</time>
      </trkpt>
      <trkpt lat="44.61048" lon="0.86988">
        <ele>178</ele>
        <time>2020-12-13T20:22:47Z</time>
      </trkpt>
      <trkpt lat="44.61083" lon="0.8688">
        <ele>180</ele>
        <time>2020-12-13T20:23:07Z</time>
      </trkpt>
      <trkpt lat="44.6111" lon="0.86739">
        <ele>185</ele>
        <time>2020-12-13T20:23:31Z</time>
      </trkpt>
      <trkpt lat="44.61138" lon="0.86624">
        <ele>187</ele>
        <time>2020-12-13T20:23:51Z</time>
      </trkpt>
      <trkpt lat="44.61164" lon="0.86528">
        <ele>187</ele>
        <time>2020-12-13T20:24:08Z</time>
      </trkpt>
      <trkpt lat="44.61151" lon="0.86536">
        <ele>187</ele>
        <time>2020-12-13T20:24:12Z</time>
      </trkpt>
      <trkpt lat="44.61189" lon="0.86492">
        <ele>188</ele>
        <time>2020-12-13T20:24:23Z</time>
      </trkpt>
      <trkpt lat="44.61244" lon="0.86406">
        <ele>188</ele>
        <time>2020-12-13T20:24:42Z</time>
      </trkpt>
      <trkpt lat="44.61183" lon="0.86346">
        <ele>187</ele>
        <time>2020-12-13T20:25:00Z</time>
      </trkpt>
      <trkpt lat="44.61201" lon="0.86279">
        <ele>189</ele>
        <time>2020-12-13T20:25:12Z</time>
      </trkpt>
      <trkpt lat="44.61199" lon="0.86168">
        <ele>189</ele>
        <time>2020-12-13T20:25:30Z</time>
      </trkpt>
      <trkpt lat="44.61232" lon="0.86068">
        <ele>184</ele>
        <time>2020-12-13T20:25:48Z</time>
      </trkpt>
      <trkpt lat="44.61288" lon="0.85998">
        <ele>179</ele>
        <time>2020-12-13T20:26:06Z</time>
      </trkpt>
      <trkpt lat="44.61318" lon="0.85872">
        <ele>179</ele>
        <time>2020-12-13T20:26:28Z</time>
      </trkpt>
      <trkpt lat="44.61372" lon="0.85761">
        <ele>176</ele>
        <time>2020-12-13T20:26:50Z</time>
      </trkpt>
      <trkpt lat="44.61397" lon="0.85727">
        <ele>174</ele>
        <time>2020-12-13T20:26:58Z</time>
      </trkpt>
      <trkpt lat="44.61403" lon="0.85688">
        <ele>174</ele>
        <time>2020-12-13T20:27:05Z</time>
      </trkpt>
      <trkpt lat="44.61377" lon="0.8564">
        <ele>173</ele>
        <time>2020-12-13T20:27:15Z</time>
      </trkpt>
      <trkpt lat="44.61351" lon="0.85551">
        <ele>167</ele>
        <time>2020-12-13T20:27:31Z</time>
      </trkpt>
      <trkpt lat="44.613" lon="0.85438">
        <ele>171</ele>
        <time>2020-12-13T20:27:53Z</time>
      </trkpt>
      <trkpt lat="44.61297" lon="0.8538">
        <ele>173</ele>
        <time>2020-12-13T20:28:03Z</time>
      </trkpt>
      <trkpt lat="44.61329" lon="0.8533">
        <ele>174</ele>
        <time>2020-12-13T20:28:14Z</time>
      </trkpt>
      <trkpt lat="44.6135" lon="0.85288">
        <ele>175</ele>
        <time>2020-12-13T20:28:23Z</time>
      </trkpt>
      <trkpt lat="44.61358" lon="0.85263">
        <ele>176</ele>
        <time>2020-12-13T20:28:27Z</time>
      </trkpt>
      <trkpt lat="44.61371" lon="0.8524">
        <ele>176</ele>
        <time>2020-12-13T20:28:32Z</time>
      </trkpt>
      <trkpt lat="44.61377" lon="0.8521">
        <ele>177</ele>
        <time>2020-12-13T20:28:37Z</time>
      </trkpt>
      <trkpt lat="44.61378" lon="0.85176">
        <ele>177</ele>
        <time>2020-12-13T20:28:43Z</time>
      </trkpt>
      <trkpt lat="44.61368" lon="0.85168">
        <ele>177</ele>
        <time>2020-12-13T20:28:46Z</time>
      </trkpt>
      <trkpt lat="44.61357" lon="0.85161">
        <ele>176</ele>
        <time>2020-12-13T20:28:49Z</time>
      </trkpt>
      <trkpt lat="44.61367" lon="0.85091">
        <ele>174</ele>
        <time>2020-12-13T20:29:00Z</time>
      </trkpt>
      <trkpt lat="44.61352" lon="0.85076">
        <ele>174</ele>
        <time>2020-12-13T20:29:05Z</time>
      </trkpt>
      <trkpt lat="44.61327" lon="0.85047">
        <ele>174</ele>
        <time>2020-12-13T20:29:12Z</time>
      </trkpt>
      <trkpt lat="44.61312" lon="0.85032">
        <ele>174</ele>
        <time>2020-12-13T20:29:17Z</time>
      </trkpt>
      <trkpt lat="44.61294" lon="0.85025">
        <ele>175</ele>
        <time>2020-12-13T20:29:21Z</time>
      </trkpt>
      <trkpt lat="44.61268" lon="0.85026">
        <ele>177</ele>
        <time>2020-12-13T20:29:27Z</time>
      </trkpt>
      <trkpt lat="44.61235" lon="0.85063">
        <ele>179</ele>
        <time>2020-12-13T20:29:37Z</time>
      </trkpt>
      <trkpt lat="44.61192" lon="0.85113">
        <ele>179</ele>
        <time>2020-12-13T20:29:50Z</time>
      </trkpt>
      <trkpt lat="44.61171" lon="0.85126">
        <ele>178</ele>
        <time>2020-12-13T20:29:55Z</time>
      </trkpt>
      <trkpt lat="44.61171" lon="0.85097">
        <ele>180</ele>
        <time>2020-12-13T20:30:00Z</time>
      </trkpt>
      <trkpt lat="44.61135" lon="0.85063">
        <ele>178</ele>
        <time>2020-12-13T20:30:10Z</time>
      </trkpt>
      <trkpt lat="44.61118" lon="0.85022">
        <ele>175</ele>
        <time>2020-12-13T20:30:18Z</time>
      </trkpt>
      <trkpt lat="44.61092" lon="0.84988">
        <ele>173</ele>
        <time>2020-12-13T20:30:26Z</time>
      </trkpt>
      <trkpt lat="44.61076" lon="0.84995">
        <ele>172</ele>
        <time>2020-12-13T20:30:30Z</time>
      </trkpt>
      <trkpt lat="44.61056" lon="0.8503">
        <ele>170</ele>
        <time>2020-12-13T20:30:38Z</time>
      </trkpt>
      <trkpt lat="44.61031" lon="0.84959">
        <ele>168</ele>
        <time>2020-12-13T20:30:51Z</time>
      </trkpt>
      <trkpt lat="44.61002" lon="0.84913">
        <ele>167</ele>
        <time>2020-12-13T20:31:01Z</time>
      </trkpt>
      <trkpt lat="44.60958" lon="0.84845">
        <ele>166</ele>
        <time>2020-12-13T20:31:16Z</time>
      </trkpt>
      <trkpt lat="44.60911" lon="0.84779">
        <ele>167</ele>
        <time>2020-12-13T20:31:32Z</time>
      </trkpt>
      <trkpt lat="44.60871" lon="0.84698">
        <ele>165</ele>
        <time>2020-12-13T20:31:48Z</time>
      </trkpt>
      <trkpt lat="44.60814" lon="0.84608">
        <ele>165</ele>
        <time>2020-12-13T20:32:08Z</time>
      </trkpt>
      <trkpt lat="44.60787" lon="0.8456">
        <ele>163</ele>
        <time>2020-12-13T20:32:19Z</time>
      </trkpt>
      <trkpt lat="44.60741" lon="0.84501">
        <ele>161</ele>
        <time>2020-12-13T20:32:33Z</time>
      </trkpt>
      <trkpt lat="44.60701" lon="0.84441">
        <ele>161</ele>
        <time>2020-12-13T20:32:47Z</time>
      </trkpt>
      <trkpt lat="44.60663" lon="0.84394">
        <ele>160</ele>
        <time>2020-12-13T20:32:59Z</time>
      </trkpt>
      <trkpt lat="44.60651" lon="0.84371">
        <ele>158</ele>
        <time>2020-12-13T20:33:03Z</time>
      </trkpt>
      <trkpt lat="44.60649" lon="0.8435">
        <ele>157</ele>
        <time>2020-12-13T20:33:07Z</time>
      </trkpt>
      <trkpt lat="44.60642" lon="0.84313">
        <ele>155</ele>
        <time>2020-12-13T20:33:13Z</time>
      </trkpt>
      <trkpt lat="44.60633" lon="0.84284">
        <ele>152</ele>
        <time>2020-12-13T20:33:18Z</time>
      </trkpt>
      <trkpt lat="44.60626" lon="0.84277">
        <ele>151</ele>
        <time>2020-12-13T20:33:20Z</time>
      </trkpt>
      <trkpt lat="44.60614" lon="0.84253">
        <ele>149</ele>
        <time>2020-12-13T20:33:25Z</time>
      </trkpt>
      <trkpt lat="44.60609" lon="0.84232">
        <ele>148</ele>
        <time>2020-12-13T20:33:29Z</time>
      </trkpt>
      <trkpt lat="44.60611" lon="0.84197">
        <ele>149</ele>
        <time>2020-12-13T20:33:35Z</time>
      </trkpt>
      <trkpt lat="44.60607" lon="0.84165">
        <ele>149</ele>
        <time>2020-12-13T20:33:40Z</time>
      </trkpt>
      <trkpt lat="44.60606" lon="0.84151">
        <ele>149</ele>
        <time>2020-12-13T20:33:43Z</time>
      </trkpt>
      <trkpt lat="44.60578" lon="0.84127">
        <ele>149</ele>
        <time>2020-12-13T20:33:50Z</time>
      </trkpt>
      <trkpt lat="44.60547" lon="0.84112">
        <ele>149</ele>
        <time>2020-12-13T20:33:58Z</time>
      </trkpt>
      <trkpt lat="44.60519" lon="0.84097">
        <ele>150</ele>
        <time>2020-12-13T20:34:05Z</time>
      </trkpt>
      <trkpt lat="44.60497" lon="0.84073">
        <ele>150</ele>
        <time>2020-12-13T20:34:11Z</time>
      </trkpt>
      <trkpt lat="44.6049" lon="0.8404">
        <ele>150</ele>
        <time>2020-12-13T20:34:17Z</time>
      </trkpt>
      <trkpt lat="44.6047" lon="0.84052">
        <ele>149</ele>
        <time>2020-12-13T20:34:22Z</time>
      </trkpt>
      <trkpt lat="44.60424" lon="0.84075">
        <ele>147</ele>
        <time>2020-12-13T20:34:34Z</time>
      </trkpt>
      <trkpt lat="44.60383" lon="0.84081">
        <ele>147</ele>
        <time>2020-12-13T20:34:43Z</time>
      </trkpt>
      <trkpt lat="44.60336" lon="0.84087">
        <ele>146</ele>
        <time>2020-12-13T20:34:54Z</time>
      </trkpt>
      <trkpt lat="44.60304" lon="0.84103">
        <ele>143</ele>
        <time>2020-12-13T20:35:02Z</time>
      </trkpt>
      <trkpt lat="44.60283" lon="0.84105">
        <ele>142</ele>
        <time>2020-12-13T20:35:07Z</time>
      </trkpt>
      <trkpt lat="44.60251" lon="0.84101">
        <ele>140</ele>
        <time>2020-12-13T20:35:15Z</time>
      </trkpt>
      <trkpt lat="44.60225" lon="0.84078">
        <ele>138</ele>
        <time>2020-12-13T20:35:22Z</time>
      </trkpt>
      <trkpt lat="44.60209" lon="0.84074">
        <ele>136</ele>
        <time>2020-12-13T20:35:26Z</time>
      </trkpt>
      <trkpt lat="44.60189" lon="0.84086">
        <ele>134</ele>
        <time>2020-12-13T20:35:31Z</time>
      </trkpt>
      <trkpt lat="44.60181" lon="0.84097">
        <ele>132</ele>
        <time>2020-12-13T20:35:33Z</time>
      </trkpt>
      <trkpt lat="44.60174" lon="0.84101">
        <ele>131</ele>
        <time>2020-12-13T20:35:35Z</time>
      </trkpt>
      <trkpt lat="44.60162" lon="0.84134">
        <ele>128</ele>
        <time>2020-12-13T20:35:41Z</time>
      </trkpt>
      <trkpt lat="44.60151" lon="0.84143">
        <ele>128</ele>
        <time>2020-12-13T20:35:44Z</time>
      </trkpt>
      <trkpt lat="44.60138" lon="0.84148">
        <ele>128</ele>
        <time>2020-12-13T20:35:47Z</time>
      </trkpt>
      <trkpt lat="44.60129" lon="0.84202">
        <ele>128</ele>
        <time>2020-12-13T20:35:57Z</time>
      </trkpt>
      <trkpt lat="44.60112" lon="0.84254">
        <ele>130</ele>
        <time>2020-12-13T20:36:06Z</time>
      </trkpt>
      <trkpt lat="44.60108" lon="0.84273">
        <ele>132</ele>
        <time>2020-12-13T20:36:09Z</time>
      </trkpt>
      <trkpt lat="44.60093" lon="0.84287">
        <ele>133</ele>
        <time>2020-12-13T20:36:14Z</time>
      </trkpt>
      <trkpt lat="44.60083" lon="0.84302">
        <ele>134</ele>
        <time>2020-12-13T20:36:17Z</time>
      </trkpt>
      <trkpt lat="44.60055" lon="0.84258">
        <ele>134</ele>
        <time>2020-12-13T20:36:27Z</time>
      </trkpt>
      <trkpt lat="44.60015" lon="0.84255">
        <ele>138</ele>
        <time>2020-12-13T20:36:36Z</time>
      </trkpt>
      <trkpt lat="44.59964" lon="0.84246">
        <ele>142</ele>
        <time>2020-12-13T20:36:48Z</time>
      </trkpt>
      <trkpt lat="44.59938" lon="0.84195">
        <ele>143</ele>
        <time>2020-12-13T20:36:59Z</time>
      </trkpt>
      <trkpt lat="44.59908" lon="0.84125">
        <ele>145</ele>
        <time>2020-12-13T20:37:12Z</time>
      </trkpt>
      <trkpt lat="44.59883" lon="0.84064">
        <ele>145</ele>
        <time>2020-12-13T20:37:24Z</time>
      </trkpt>
      <trkpt lat="44.59849" lon="0.84001">
        <ele>143</ele>
        <time>2020-12-13T20:37:37Z</time>
      </trkpt>
      <trkpt lat="44.59815" lon="0.84049">
        <ele>146</ele>
        <time>2020-12-13T20:37:48Z</time>
      </trkpt>
      <trkpt lat="44.59765" lon="0.84114">
        <ele>147</ele>
        <time>2020-12-13T20:38:04Z</time>
      </trkpt>
      <trkpt lat="44.59737" lon="0.84161">
        <ele>150</ele>
        <time>2020-12-13T20:38:14Z</time>
      </trkpt>
      <trkpt lat="44.59717" lon="0.84199">
        <ele>152</ele>
        <time>2020-12-13T20:38:22Z</time>
      </trkpt>
      <trkpt lat="44.59692" lon="0.84223">
        <ele>154</ele>
        <time>2020-12-13T20:38:29Z</time>
      </trkpt>
      <trkpt lat="44.59637" lon="0.84299">
        <ele>157</ele>
        <time>2020-12-13T20:38:47Z</time>
      </trkpt>
      <trkpt lat="44.59582" lon="0.84362">
        <ele>157</ele>
        <time>2020-12-13T20:39:04Z</time>
      </trkpt>
      <trkpt lat="44.59504" lon="0.84436">
        <ele>156</ele>
        <time>2020-12-13T20:39:26Z</time>
      </trkpt>
      <trkpt lat="44.59468" lon="0.8447">
        <ele>156</ele>
        <time>2020-12-13T20:39:36Z</time>
      </trkpt>
      <trkpt lat="44.59413" lon="0.84522">
        <ele>159</ele>
        <time>2020-12-13T20:39:52Z</time>
      </trkpt>
      <trkpt lat="44.59397" lon="0.84545">
        <ele>158</ele>
        <time>2020-12-13T20:39:57Z</time>
      </trkpt>
      <trkpt lat="44.59394" lon="0.84582">
        <ele>160</ele>
        <time>2020-12-13T20:40:03Z</time>
      </trkpt>
      <trkpt lat="44.59406" lon="0.84633">
        <ele>161</ele>
        <time>2020-12-13T20:40:12Z</time>
      </trkpt>
      <trkpt lat="44.59426" lon="0.84694">
        <ele>161</ele>
        <time>2020-12-13T20:40:23Z</time>
      </trkpt>
      <trkpt lat="44.59447" lon="0.84773">
        <ele>162</ele>
        <time>2020-12-13T20:40:37Z</time>
      </trkpt>
      <trkpt lat="44.59417" lon="0.84802">
        <ele>163</ele>
        <time>2020-12-13T20:40:46Z</time>
      </trkpt>
      <trkpt lat="44.59396" lon="0.84829">
        <ele>162</ele>
        <time>2020-12-13T20:40:52Z</time>
      </trkpt>
      <trkpt lat="44.59395" lon="0.84908">
        <ele>164</ele>
        <time>2020-12-13T20:41:05Z</time>
      </trkpt>
      <trkpt lat="44.59375" lon="0.8493">
        <ele>164</ele>
        <time>2020-12-13T20:41:11Z</time>
      </trkpt>
      <trkpt lat="44.5935" lon="0.8495">
        <ele>164</ele>
        <time>2020-12-13T20:41:18Z</time>
      </trkpt>
      <trkpt lat="44.59324" lon="0.84977">
        <ele>164</ele>
        <time>2020-12-13T20:41:26Z</time>
      </trkpt>
      <trkpt lat="44.5932" lon="0.85011">
        <ele>164</ele>
        <time>2020-12-13T20:41:31Z</time>
      </trkpt>
      <trkpt lat="44.59296" lon="0.85042">
        <ele>163</ele>
        <time>2020-12-13T20:41:39Z</time>
      </trkpt>
      <trkpt lat="44.59229" lon="0.85078">
        <ele>164</ele>
        <time>2020-12-13T20:41:56Z</time>
      </trkpt>
      <trkpt lat="44.59171" lon="0.85118">
        <ele>166</ele>
        <time>2020-12-13T20:42:11Z</time>
      </trkpt>
      <trkpt lat="44.59125" lon="0.85154">
        <ele>167</ele>
        <time>2020-12-13T20:42:23Z</time>
      </trkpt>
      <trkpt lat="44.59076" lon="0.85165">
        <ele>168</ele>
        <time>2020-12-13T20:42:35Z</time>
      </trkpt>
      <trkpt lat="44.59032" lon="0.85186">
        <ele>170</ele>
        <time>2020-12-13T20:42:46Z</time>
      </trkpt>
      <trkpt lat="44.58994" lon="0.85204">
        <ele>171</ele>
        <time>2020-12-13T20:42:55Z</time>
      </trkpt>
      <trkpt lat="44.5896" lon="0.8521">
        <ele>173</ele>
        <time>2020-12-13T20:43:03Z</time>
      </trkpt>
      <trkpt lat="44.58937" lon="0.85213">
        <ele>174</ele>
        <time>2020-12-13T20:43:08Z</time>
      </trkpt>
      <trkpt lat="44.58908" lon="0.85208">
        <ele>176</ele>
        <time>2020-12-13T20:43:15Z</time>
      </trkpt>
      <trkpt lat="44.58882" lon="0.85168">
        <ele>177</ele>
        <time>2020-12-13T20:43:24Z</time>
      </trkpt>
      <trkpt lat="44.58863" lon="0.85168">
        <ele>177</ele>
        <time>2020-12-13T20:43:29Z</time>
      </trkpt>
      <trkpt lat="44.58838" lon="0.85118">
        <ele>178</ele>
        <time>2020-12-13T20:43:39Z</time>
      </trkpt>
      <trkpt lat="44.58812" lon="0.85085">
        <ele>177</ele>
        <time>2020-12-13T20:43:47Z</time>
      </trkpt>
      <trkpt lat="44.58778" lon="0.85073">
        <ele>174</ele>
        <time>2020-12-13T20:43:55Z</time>
      </trkpt>
      <trkpt lat="44.58746" lon="0.85024">
        <ele>170</ele>
        <time>2020-12-13T20:44:06Z</time>
      </trkpt>
      <trkpt lat="44.58761" lon="0.84986">
        <ele>170</ele>
        <time>2020-12-13T20:44:13Z</time>
      </trkpt>
      <trkpt lat="44.58787" lon="0.84923">
        <ele>171</ele>
        <time>2020-12-13T20:44:26Z</time>
      </trkpt>
      <trkpt lat="44.58825" lon="0.84858">
        <ele>169</ele>
        <time>2020-12-13T20:44:40Z</time>
      </trkpt>
      <trkpt lat="44.58854" lon="0.84766">
        <ele>164</ele>
        <time>2020-12-13T20:44:56Z</time>
      </trkpt>
      <trkpt lat="44.58881" lon="0.84717">
        <ele>163</ele>
        <time>2020-12-13T20:45:07Z</time>
      </trkpt>
      <trkpt lat="44.5892" lon="0.84681">
        <ele>162</ele>
        <time>2020-12-13T20:45:18Z</time>
      </trkpt>
      <trkpt lat="44.58929" lon="0.84659">
        <ele>161</ele>
        <time>2020-12-13T20:45:22Z</time>
      </trkpt>
      <trkpt lat="44.5892" lon="0.84589">
        <ele>158</ele>
        <time>2020-12-13T20:45:34Z</time>
      </trkpt>
      <trkpt lat="44.58917" lon="0.8451">
        <ele>158</ele>
        <time>2020-12-13T20:45:47Z</time>
      </trkpt>
      <trkpt lat="44.58905" lon="0.84459">
        <ele>157</ele>
        <time>2020-12-13T20:45:56Z</time>
      </trkpt>
      <trkpt lat="44.58891" lon="0.84365">
        <ele>154</ele>
        <time>2020-12-13T20:46:12Z</time>
      </trkpt>
      <trkpt lat="44.58881" lon="0.84326">
        <ele>153</ele>
        <time>2020-12-13T20:46:19Z</time>
      </trkpt>
      <trkpt lat="44.58884" lon="0.84261">
        <ele>154</ele>
        <time>2020-12-13T20:46:29Z</time>
      </trkpt>
      <trkpt lat="44.58901" lon="0.84199">
        <ele>155</ele>
        <time>2020-12-13T20:46:40Z</time>
      </trkpt>
      <trkpt lat="44.58908" lon="0.84169">
        <ele>155</ele>
        <time>2020-12-13T20:46:46Z</time>
      </trkpt>
      <trkpt lat="44.58909" lon="0.84142">
        <ele>156</ele>
        <time>2020-12-13T20:46:50Z</time>
      </trkpt>
      <trkpt lat="44.58934" lon="0.84107">
        <ele>155</ele>
        <time>2020-12-13T20:46:58Z</time>
      </trkpt>
      <trkpt lat="44.59027" lon="0.84057">
        <ele>154</ele>
        <time>2020-12-13T20:47:22Z</time>
      </trkpt>
      <trkpt lat="44.59113" lon="0.8399">
        <ele>155</ele>
        <time>2020-12-13T20:47:45Z</time>
      </trkpt>
      <trkpt lat="44.59148" lon="0.83931">
        <ele>157</ele>
        <time>2020-12-13T20:47:57Z</time>
      </trkpt>
      <trkpt lat="44.59186" lon="0.83851">
        <ele>153</ele>
        <time>2020-12-13T20:48:13Z</time>
      </trkpt>
      <trkpt lat="44.59191" lon="0.83754">
        <ele>151</ele>
        <time>2020-12-13T20:48:30Z</time>
      </trkpt>
      <trkpt lat="44.59197" lon="0.8368">
        <ele>150</ele>
        <time>2020-12-13T20:48:42Z</time>
      </trkpt>
      <trkpt lat="44.59249" lon="0.8358">
        <ele>151</ele>
        <time>2020-12-13T20:49:03Z</time>
      </trkpt>
      <trkpt lat="44.59185" lon="0.83595">
        <ele>149</ele>
        <time>2020-12-13T20:49:18Z</time>
      </trkpt>
      <trkpt lat="44.59066" lon="0.83595">
        <ele>143</ele>
        <time>2020-12-13T20:49:45Z</time>
      </trkpt>
      <trkpt lat="44.58933" lon="0.83602">
        <ele>129</ele>
        <time>2020-12-13T20:50:17Z</time>
      </trkpt>
      <trkpt lat="44.58801" lon="0.83633">
        <ele>131</ele>
        <time>2020-12-13T20:50:48Z</time>
      </trkpt>
      <trkpt lat="44.58802" lon="0.83593">
        <ele>127</ele>
        <time>2020-12-13T20:50:54Z</time>
      </trkpt>
      <trkpt lat="44.58796" lon="0.8353">
        <ele>128</ele>
        <time>2020-12-13T20:51:05Z</time>
      </trkpt>
      <trkpt lat="44.58807" lon="0.83474">
        <ele>131</ele>
        <time>2020-12-13T20:51:15Z</time>
      </trkpt>
      <trkpt lat="44.58764" lon="0.83431">
        <ele>135</ele>
        <time>2020-12-13T20:51:27Z</time>
      </trkpt>
      <trkpt lat="44.58728" lon="0.83391">
        <ele>140</ele>
        <time>2020-12-13T20:51:38Z</time>
      </trkpt>
      <trkpt lat="44.58713" lon="0.8333">
        <ele>142</ele>
        <time>2020-12-13T20:51:48Z</time>
      </trkpt>
      <trkpt lat="44.58663" lon="0.83297">
        <ele>147</ele>
        <time>2020-12-13T20:52:01Z</time>
      </trkpt>
      <trkpt lat="44.58684" lon="0.83243">
        <ele>144</ele>
        <time>2020-12-13T20:52:12Z</time>
      </trkpt>
      <trkpt lat="44.58757" lon="0.83194">
        <ele>143</ele>
        <time>2020-12-13T20:52:31Z</time>
      </trkpt>
      <trkpt lat="44.58834" lon="0.83124">
        <ele>141</ele>
        <time>2020-12-13T20:52:52Z</time>
      </trkpt>
      <trkpt lat="44.58883" lon="0.8307">
        <ele>136</ele>
        <time>2020-12-13T20:53:06Z</time>
      </trkpt>
      <trkpt lat="44.58899" lon="0.82989">
        <ele>132</ele>
        <time>2020-12-13T20:53:20Z</time>
      </trkpt>
      <trkpt lat="44.58967" lon="0.82945">
        <ele>127</ele>
        <time>2020-12-13T20:53:38Z</time>
      </trkpt>
      <trkpt lat="44.59021" lon="0.82915">
        <ele>124</ele>
        <time>2020-12-13T20:53:51Z</time>
      </trkpt>
      <trkpt lat="44.59045" lon="0.82799">
        <ele>125</ele>
        <time>2020-12-13T20:54:12Z</time>
      </trkpt>
      <trkpt lat="44.58997" lon="0.82787">
        <ele>131</ele>
        <time>2020-12-13T20:54:23Z</time>
      </trkpt>
      <trkpt lat="44.58969" lon="0.82743">
        <ele>133</ele>
        <time>2020-12-13T20:54:33Z</time>
      </trkpt>
      <trkpt lat="44.58985" lon="0.8263">
        <ele>129</ele>
        <time>2020-12-13T20:54:52Z</time>
      </trkpt>
      <trkpt lat="44.58911" lon="0.82584">
        <ele>130</ele>
        <time>2020-12-13T20:55:11Z</time>
      </trkpt>
      <trkpt lat="44.58943" lon="0.82435">
        <ele>127</ele>
        <time>2020-12-13T20:55:37Z</time>
      </trkpt>
      <trkpt lat="44.59054" lon="0.82467">
        <ele>121</ele>
        <time>2020-12-13T20:56:03Z</time>
      </trkpt>
      <trkpt lat="44.59049" lon="0.82438">
        <ele>120</ele>
        <time>2020-12-13T20:56:08Z</time>
      </trkpt>
      <trkpt lat="44.59051" lon="0.82382">
        <ele>120</ele>
        <time>2020-12-13T20:56:17Z</time>
      </trkpt>
      <trkpt lat="44.59125" lon="0.82267">
        <ele>121</ele>
        <time>2020-12-13T20:56:43Z</time>
      </trkpt>
      <trkpt lat="44.59202" lon="0.82119">
        <ele>118</ele>
        <time>2020-12-13T20:57:14Z</time>
      </trkpt>
      <trkpt lat="44.59159" lon="0.82061">
        <ele>119</ele>
        <time>2020-12-13T20:57:28Z</time>
      </trkpt>
      <trkpt lat="44.59315" lon="0.81969">
        <ele>117</ele>
        <time>2020-12-13T20:58:07Z</time>
      </trkpt>
      <trkpt lat="44.5938" lon="0.81913">
        <ele>113</ele>
        <time>2020-12-13T20:58:25Z</time>
      </trkpt>
      <trkpt lat="44.59423" lon="0.81828">
        <ele>106</ele>
        <time>2020-12-13T20:58:42Z</time>
      </trkpt>
      <trkpt lat="44.59332" lon="0.81765">
        <ele>109</ele>
        <time>2020-12-13T20:59:06Z</time>
      </trkpt>
      <trkpt lat="44.59234" lon="0.81711">
        <ele>108</ele>
        <time>2020-12-13T20:59:31Z</time>
      </trkpt>
      <trkpt lat="44.59141" lon="0.81635">
        <ele>103</ele>
        <time>2020-12-13T20:59:56Z</time>
      </trkpt>
      <trkpt lat="44.59012" lon="0.8157">
        <ele>103</ele>
        <time>2020-12-13T21:00:28Z</time>
      </trkpt>
      <trkpt lat="44.58929" lon="0.81547">
        <ele>104</ele>
        <time>2020-12-13T21:00:47Z</time>
      </trkpt>
      <trkpt lat="44.58856" lon="0.81509">
        <ele>104</ele>
        <time>2020-12-13T21:01:06Z</time>
      </trkpt>
      <trkpt lat="44.58832" lon="0.81505">
        <ele>104</ele>
        <time>2020-12-13T21:01:11Z</time>
      </trkpt>
      <trkpt lat="44.58809" lon="0.81552">
        <ele>107</ele>
        <time>2020-12-13T21:01:21Z</time>
      </trkpt>
      <trkpt lat="44.58739" lon="0.81475">
        <ele>109</ele>
        <time>2020-12-13T21:01:42Z</time>
      </trkpt>
      <trkpt lat="44.58702" lon="0.81464">
        <ele>110</ele>
        <time>2020-12-13T21:01:50Z</time>
      </trkpt>
      <trkpt lat="44.5868" lon="0.81426">
        <ele>109</ele>
        <time>2020-12-13T21:01:59Z</time>
      </trkpt>
      <trkpt lat="44.58633" lon="0.81424">
        <ele>110</ele>
        <time>2020-12-13T21:02:10Z</time>
      </trkpt>
      <trkpt lat="44.58589" lon="0.81325">
        <ele>110</ele>
        <time>2020-12-13T21:02:29Z</time>
      </trkpt>
      <trkpt lat="44.58553" lon="0.81403">
        <ele>114</ele>
        <time>2020-12-13T21:02:44Z</time>
      </trkpt>
      <trkpt lat="44.58492" lon="0.81473">
        <ele>120</ele>
        <time>2020-12-13T21:03:03Z</time>
      </trkpt>
      <trkpt lat="44.58432" lon="0.81514">
        <ele>124</ele>
        <time>2020-12-13T21:03:18Z</time>
      </trkpt>
      <trkpt lat="44.58404" lon="0.81525">
        <ele>126</ele>
        <time>2020-12-13T21:03:25Z</time>
      </trkpt>
      <trkpt lat="44.58363" lon="0.81538">
        <ele>128</ele>
        <time>2020-12-13T21:03:35Z</time>
      </trkpt>
      <trkpt lat="44.58332" lon="0.81581">
        <ele>132</ele>
        <time>2020-12-13T21:03:45Z</time>
      </trkpt>
      <trkpt lat="44.58313" lon="0.81612">
        <ele>133</ele>
        <time>2020-12-13T21:03:52Z</time>
      </trkpt>
      <trkpt lat="44.58232" lon="0.81724">
        <ele>137</ele>
        <time>2020-12-13T21:04:19Z</time>
      </trkpt>
      <trkpt lat="44.58163" lon="0.81828">
        <ele>140</ele>
        <time>2020-12-13T21:04:42Z</time>
      </trkpt>
      <trkpt lat="44.58144" lon="0.81843">
        <ele>141</ele>
        <time>2020-12-13T21:04:47Z</time>
      </trkpt>
      <trkpt lat="44.58103" lon="0.81801">
        <ele>144</ele>
        <time>2020-12-13T21:04:59Z</time>
      </trkpt>
      <trkpt lat="44.58072" lon="0.81794">
        <ele>145</ele>
        <time>2020-12-13T21:05:06Z</time>
      </trkpt>
      <trkpt lat="44.58049" lon="0.81922">
        <ele>142</ele>
        <time>2020-12-13T21:05:28Z</time>
      </trkpt>
      <trkpt lat="44.58029" lon="0.82009">
        <ele>141</ele>
        <time>2020-12-13T21:05:44Z</time>
      </trkpt>
      <trkpt lat="44.57995" lon="0.82215">
        <ele>140</ele>
        <time>2020-12-13T21:06:19Z</time>
      </trkpt>
      <trkpt lat="44.57999" lon="0.82339">
        <ele>142</ele>
        <time>2020-12-13T21:06:39Z</time>
      </trkpt>
      <trkpt lat="44.58009" lon="0.82476">
        <ele>147</ele>
        <time>2020-12-13T21:07:02Z</time>
      </trkpt>
      <trkpt lat="44.57966" lon="0.82465">
        <ele>145</ele>
        <time>2020-12-13T21:07:13Z</time>
      </trkpt>
      <trkpt lat="44.57882" lon="0.82519">
        <ele>142</ele>
        <time>2020-12-13T21:07:34Z</time>
      </trkpt>
      <trkpt lat="44.57805" lon="0.8259">
        <ele>139</ele>
        <time>2020-12-13T21:07:56Z</time>
      </trkpt>
      <trkpt lat="44.57732" lon="0.82617">
        <ele>135</ele>
        <time>2020-12-13T21:08:13Z</time>
      </trkpt>
      <trkpt lat="44.57696" lon="0.82597">
        <ele>130</ele>
        <time>2020-12-13T21:08:22Z</time>
      </trkpt>
      <trkpt lat="44.57634" lon="0.8266">
        <ele>133</ele>
        <time>2020-12-13T21:08:40Z</time>
      </trkpt>
      <trkpt lat="44.57624" lon="0.82667">
        <ele>133</ele>
        <time>2020-12-13T21:08:43Z</time>
      </trkpt>
      <trkpt lat="44.57598" lon="0.8264">
        <ele>129</ele>
        <time>2020-12-13T21:08:50Z</time>
      </trkpt>
      <trkpt lat="44.57577" lon="0.82608">
        <ele>127</ele>
        <time>2020-12-13T21:08:58Z</time>
      </trkpt>
      <trkpt lat="44.5755" lon="0.82556">
        <ele>123</ele>
        <time>2020-12-13T21:09:08Z</time>
      </trkpt>
      <trkpt lat="44.57543" lon="0.82525">
        <ele>121</ele>
        <time>2020-12-13T21:09:14Z</time>
      </trkpt>
      <trkpt lat="44.57509" lon="0.8251">
        <ele>122</ele>
        <time>2020-12-13T21:09:22Z</time>
      </trkpt>
      <trkpt lat="44.57494" lon="0.82532">
        <ele>124</ele>
        <time>2020-12-13T21:09:27Z</time>
      </trkpt>
      <trkpt lat="44.5748" lon="0.82547">
        <ele>125</ele>
        <time>2020-12-13T21:09:31Z</time>
      </trkpt>
      <trkpt lat="44.57462" lon="0.8257">
        <ele>128</ele>
        <time>2020-12-13T21:09:37Z</time>
      </trkpt>
      <trkpt lat="44.57414" lon="0.82592">
        <ele>132</ele>
        <time>2020-12-13T21:09:49Z</time>
      </trkpt>
      <trkpt lat="44.57364" lon="0.82637">
        <ele>136</ele>
        <time>2020-12-13T21:10:03Z</time>
      </trkpt>
      <trkpt lat="44.57324" lon="0.82703">
        <ele>140</ele>
        <time>2020-12-13T21:10:17Z</time>
      </trkpt>
      <trkpt lat="44.5728" lon="0.82776">
        <ele>142</ele>
        <time>2020-12-13T21:10:33Z</time>
      </trkpt>
      <trkpt lat="44.5715" lon="0.82873">
        <ele>146</ele>
        <time>2020-12-13T21:11:07Z</time>
      </trkpt>
      <trkpt lat="44.57035" lon="0.82997">
        <ele>154</ele>
        <time>2020-12-13T21:11:41Z</time>
      </trkpt>
      <trkpt lat="44.56912" lon="0.83113">
        <ele>149</ele>
        <time>2020-12-13T21:12:16Z</time>
      </trkpt>
      <trkpt lat="44.56847" lon="0.8316">
        <ele>149</ele>
        <time>2020-12-13T21:12:33Z</time>
      </trkpt>
      <trkpt lat="44.568" lon="0.83184">
        <ele>150</ele>
        <time>2020-12-13T21:12:44Z</time>
      </trkpt>
      <trkpt lat="44.56743" lon="0.8321">
        <ele>151</ele>
        <time>2020-12-13T21:12:58Z</time>
      </trkpt>
      <trkpt lat="44.56717" lon="0.8322">
        <ele>151</ele>
        <time>2020-12-13T21:13:05Z</time>
      </trkpt>
      <trkpt lat="44.56672" lon="0.83274">
        <ele>151</ele>
        <time>2020-12-13T21:13:19Z</time>
      </trkpt>
      <trkpt lat="44.56597" lon="0.83347">
        <ele>151</ele>
        <time>2020-12-13T21:13:40Z</time>
      </trkpt>
      <trkpt lat="44.56539" lon="0.83413">
        <ele>153</ele>
        <time>2020-12-13T21:13:57Z</time>
      </trkpt>
      <trkpt lat="44.56499" lon="0.83493">
        <ele>157</ele>
        <time>2020-12-13T21:14:14Z</time>
      </trkpt>
      <trkpt lat="44.56545" lon="0.83536">
        <ele>156</ele>
        <time>2020-12-13T21:14:26Z</time>
      </trkpt>
      <trkpt lat="44.5661" lon="0.83579">
        <ele>157</ele>
        <time>2020-12-13T21:14:43Z</time>
      </trkpt>
      <trkpt lat="44.56698" lon="0.83615">
        <ele>160</ele>
        <time>2020-12-13T21:15:05Z</time>
      </trkpt>
      <trkpt lat="44.56771" lon="0.83718">
        <ele>164</ele>
        <time>2020-12-13T21:15:29Z</time>
      </trkpt>
      <trkpt lat="44.5684" lon="0.83701">
        <ele>163</ele>
        <time>2020-12-13T21:15:45Z</time>
      </trkpt>
      <trkpt lat="44.56899" lon="0.83628">
        <ele>161</ele>
        <time>2020-12-13T21:16:04Z</time>
      </trkpt>
      <trkpt lat="44.56921" lon="0.83641">
        <ele>160</ele>
        <time>2020-12-13T21:16:09Z</time>
      </trkpt>
      <trkpt lat="44.56948" lon="0.83727">
        <ele>162</ele>
        <time>2020-12-13T21:16:25Z</time>
      </trkpt>
      <trkpt lat="44.56971" lon="0.83783">
        <ele>162</ele>
        <time>2020-12-13T21:16:36Z</time>
      </trkpt>
      <trkpt lat="44.56919" lon="0.83823">
        <ele>164</ele>
        <time>2020-12-13T21:16:49Z</time>
      </trkpt>
      <trkpt lat="44.56878" lon="0.83881">
        <ele>162</ele>
        <time>2020-12-13T21:17:03Z</time>
      </trkpt>
      <trkpt lat="44.56879" lon="0.83948">
        <ele>162</ele>
        <time>2020-12-13T21:17:14Z</time>
      </trkpt>
      <trkpt lat="44.56924" lon="0.84064">
        <ele>163</ele>
        <time>2020-12-13T21:17:36Z</time>
      </trkpt>
      <trkpt lat="44.56947" lon="0.84124">
        <ele>163</ele>
        <time>2020-12-13T21:17:47Z</time>
      </trkpt>
      <trkpt lat="44.56922" lon="0.84165">
        <ele>162</ele>
        <time>2020-12-13T21:17:56Z</time>
      </trkpt>
      <trkpt lat="44.56837" lon="0.84216">
        <ele>157</ele>
        <time>2020-12-13T21:18:18Z</time>
      </trkpt>
      <trkpt lat="44.56789" lon="0.84272">
        <ele>151</ele>
        <time>2020-12-13T21:18:33Z</time>
      </trkpt>
      <trkpt lat="44.56777" lon="0.8433">
        <ele>152</ele>
        <time>2020-12-13T21:18:43Z</time>
      </trkpt>
      <trkpt lat="44.56788" lon="0.84403">
        <ele>153</ele>
        <time>2020-12-13T21:18:55Z</time>
      </trkpt>
      <trkpt lat="44.56759" lon="0.84458">
        <ele>155</ele>
        <time>2020-12-13T21:19:06Z</time>
      </trkpt>
      <trkpt lat="44.56756" lon="0.84536">
        <ele>157</ele>
        <time>2020-12-13T21:19:19Z</time>
      </trkpt>
      <trkpt lat="44.56763" lon="0.84619">
        <ele>156</ele>
        <time>2020-12-13T21:19:33Z</time>
      </trkpt>
      <trkpt lat="44.56736" lon="0.8469">
        <ele>154</ele>
        <time>2020-12-13T21:19:47Z</time>
      </trkpt>
      <trkpt lat="44.56698" lon="0.84752">
        <ele>154</ele>
        <time>2020-12-13T21:20:00Z</time>
      </trkpt>
      <trkpt lat="44.56661" lon="0.84782">
        <ele>156</ele>
        <time>2020-12-13T21:20:10Z</time>
      </trkpt>
      <trkpt lat="44.56641" lon="0.84832">
        <ele>159</ele>
        <time>2020-12-13T21:20:20Z</time>
      </trkpt>
      <trkpt lat="44.56679" lon="0.8492">
        <ele>166</ele>
        <time>2020-12-13T21:20:37Z</time>
      </trkpt>
      <trkpt lat="44.56713" lon="0.84978">
        <ele>168</ele>
        <time>2020-12-13T21:20:49Z</time>
      </trkpt>
      <trkpt lat="44.56786" lon="0.84999">
        <ele>172</ele>
        <time>2020-12-13T21:21:07Z</time>
      </trkpt>
      <trkpt lat="44.56878" lon="0.84999">
        <ele>170</ele>
        <time>2020-12-13T21:21:28Z</time>
      </trkpt>
      <trkpt lat="44.5691" lon="0.85001">
        <ele>168</ele>
        <time>2020-12-13T21:21:36Z</time>
      </trkpt>
      <trkpt lat="44.56919" lon="0.84907">
        <ele>172</ele>
        <time>2020-12-13T21:21:52Z</time>
      </trkpt>
      <trkpt lat="44.56962" lon="0.84969">
        <ele>169</ele>
        <time>2020-12-13T21:22:06Z</time>
      </trkpt>
      <trkpt lat="44.5702" lon="0.85003">
        <ele>168</ele>
        <time>2020-12-13T21:22:21Z</time>
      </trkpt>
      <trkpt lat="44.57158" lon="0.84965">
        <ele>176</ele>
        <time>2020-12-13T21:22:54Z</time>
      </trkpt>
      <trkpt lat="44.57225" lon="0.8498">
        <ele>177</ele>
        <time>2020-12-13T21:23:09Z</time>
      </trkpt>
      <trkpt lat="44.57286" lon="0.85106">
        <ele>176</ele>
        <time>2020-12-13T21:23:35Z</time>
      </trkpt>
      <trkpt lat="44.5735" lon="0.85244">
        <ele>178</ele>
        <time>2020-12-13T21:24:02Z</time>
      </trkpt>
      <trkpt lat="44.57408" lon="0.85306">
        <ele>179</ele>
        <time>2020-12-13T21:24:19Z</time>
      </trkpt>
      <trkpt lat="44.57404" lon="0.85323">
        <ele>179</ele>
        <time>2020-12-13T21:24:22Z</time>
      </trkpt>
      <trkpt lat="44.5737" lon="0.85347">
        <ele>178</ele>
        <time>2020-12-13T21:24:31Z</time>
      </trkpt>
      <trkpt lat="44.57341" lon="0.854">
        <ele>180</ele>
        <time>2020-12-13T21:24:42Z</time>
      </trkpt>
      <trkpt lat="44.57363" lon="0.85446">
        <ele>182</ele>
        <time>2020-12-13T21:24:51Z</time>
      </trkpt>
      <trkpt lat="44.57414" lon="0.85441">
        <ele>182</ele>
        <time>2020-12-13T21:25:03Z</time>
      </trkpt>
      <trkpt lat="44.57411" lon="0.8554">
        <ele>185</ele>
        <time>2020-12-13T21:25:20Z</time>
      </trkpt>
      <trkpt lat="44.57402" lon="0.85699">
        <ele>189</ele>
        <time>2020-12-13T21:25:46Z</time>
      </trkpt>
      <trkpt lat="44.57405" lon="0.85842">
        <ele>189</ele>
        <time>2020-12-13T21:26:10Z</time>
      </trkpt>
      <trkpt lat="44.57385" lon="0.85905">
        <ele>192</ele>
        <time>2020-12-13T21:26:22Z</time>
      </trkpt>
      <trkpt lat="44.57364" lon="0.85976">
        <ele>194</ele>
        <time>2020-12-13T21:26:34Z</time>
      </trkpt>
      <trkpt lat="44.5734" lon="0.86008">
        <ele>195</ele>
        <time>2020-12-13T21:26:42Z</time>
      </trkpt>
      <trkpt lat="44.57399" lon="0.8604">
        <ele>196</ele>
        <time>2020-12-13T21:26:57Z</time>
      </trkpt>
      <trkpt lat="44.57466" lon="0.86074">
        <ele>194</ele>
        <time>2020-12-13T21:27:13Z</time>
      </trkpt>
      <trkpt lat="44.57549" lon="0.86059">
        <ele>192</ele>
        <time>2020-12-13T21:27:33Z</time>
      </trkpt>
      <trkpt lat="44.57661" lon="0.86021">
        <ele>192</ele>
        <time>2020-12-13T21:28:00Z</time>
      </trkpt>
      <trkpt lat="44.57751" lon="0.85969">
        <ele>191</ele>
        <time>2020-12-13T21:28:23Z</time>
      </trkpt>
      <trkpt lat="44.57864" lon="0.85918">
        <ele>184</ele>
        <time>2020-12-13T21:28:50Z</time>
      </trkpt>
      <trkpt lat="44.57888" lon="0.85969">
        <ele>182</ele>
        <time>2020-12-13T21:29:01Z</time>
      </trkpt>
      <trkpt lat="44.57897" lon="0.86057">
        <ele>181</ele>
        <time>2020-12-13T21:29:15Z</time>
      </trkpt>
      <trkpt lat="44.57934" lon="0.86117">
        <ele>182</ele>
        <time>2020-12-13T21:29:29Z</time>
      </trkpt>
      <trkpt lat="44.57969" lon="0.86209">
        <ele>183</ele>
        <time>2020-12-13T21:29:46Z</time>
      </trkpt>
      <trkpt lat="44.58011" lon="0.86317">
        <ele>181</ele>
        <time>2020-12-13T21:30:06Z</time>
      </trkpt>
      <trkpt lat="44.58037" lon="0.86388">
        <ele>181</ele>
        <time>2020-12-13T21:30:20Z</time>
      </trkpt>
      <trkpt lat="44.58079" lon="0.86531">
        <ele>176</ele>
        <time>2020-12-13T21:30:45Z</time>
      </trkpt>
      <trkpt lat="44.58098" lon="0.86634">
        <ele>174</ele>
        <time>2020-12-13T21:31:03Z</time>
      </trkpt>
      <trkpt lat="44.58096" lon="0.86718">
        <ele>170</ele>
        <time>2020-12-13T21:31:17Z</time>
      </trkpt>
      <trkpt lat="44.58072" lon="0.86806">
        <ele>168</ele>
        <time>2020-12-13T21:31:33Z</time>
      </trkpt>
      <trkpt lat="44.58052" lon="0.86849">
        <ele>169</ele>
        <time>2020-12-13T21:31:41Z</time>
      </trkpt>
      <trkpt lat="44.58066" lon="0.86922">
        <ele>170</ele>
        <time>2020-12-13T21:31:54Z</time>
      </trkpt>
      <trkpt lat="44.58108" lon="0.86969">
        <ele>170</ele>
        <time>2020-12-13T21:32:06Z</time>
      </trkpt>
      <trkpt lat="44.58131" lon="0.87005">
        <ele>169</ele>
        <time>2020-12-13T21:32:14Z</time>
      </trkpt>
      <trkpt lat="44.5814" lon="0.87115">
        <ele>170</ele>
        <time>2020-12-13T21:32:33Z</time>
      </trkpt>
      <trkpt lat="44.58162" lon="0.87239">
        <ele>168</ele>
        <time>2020-12-13T21:32:54Z</time>
      </trkpt>
      <trkpt lat="44.5818" lon="0.87321">
        <ele>159</ele>
        <time>2020-12-13T21:33:08Z</time>
      </trkpt>
      <trkpt lat="44.58214" lon="0.87375">
        <ele>152</ele>
        <time>2020-12-13T21:33:20Z</time>
      </trkpt>
      <trkpt lat="44.5824" lon="0.87454">
        <ele>148</ele>
        <time>2020-12-13T21:33:35Z</time>
      </trkpt>
      <trkpt lat="44.58261" lon="0.87527">
        <ele>156</ele>
        <time>2020-12-13T21:33:48Z</time>
      </trkpt>
      <trkpt lat="44.58272" lon="0.87574">
        <ele>161</ele>
        <time>2020-12-13T21:33:56Z</time>
      </trkpt>
      <trkpt lat="44.58332" lon="0.87651">
        <ele>159</ele>
        <time>2020-12-13T21:34:15Z</time>
      </trkpt>
      <trkpt lat="44.58333" lon="0.87694">
        <ele>159</ele>
        <time>2020-12-13T21:34:22Z</time>
      </trkpt>
      <trkpt lat="44.58327" lon="0.87778">
        <ele>154</ele>
        <time>2020-12-13T21:34:36Z</time>
      </trkpt>
      <trkpt lat="44.58344" lon="0.87827">
        <ele>155</ele>
        <time>2020-12-13T21:34:45Z</time>
      </trkpt>
      <trkpt lat="44.58333" lon="0.87887">
        <ele>151</ele>
        <time>2020-12-13T21:34:56Z</time>
      </trkpt>
      <trkpt lat="44.58354" lon="0.87941">
        <ele>155</ele>
        <time>2020-12-13T21:35:06Z</time>
      </trkpt>
      <trkpt lat="44.58414" lon="0.87984">
        <ele>154</ele>
        <time>2020-12-13T21:35:22Z</time>
      </trkpt>
      <trkpt lat="44.58475" lon="0.87995">
        <ele>152</ele>
        <time>2020-12-13T21:35:36Z</time>
      </trkpt>
      <trkpt lat="44.58483" lon="0.87958">
        <ele>156</ele>
        <time>2020-12-13T21:35:42Z</time>
      </trkpt>
      <trkpt lat="44.58489" lon="0.87913">
        <ele>160</ele>
        <time>2020-12-13T21:35:50Z</time>
      </trkpt>
      <trkpt lat="44.585" lon="0.87868">
        <ele>168</ele>
        <time>2020-12-13T21:35:58Z</time>
      </trkpt>
      <trkpt lat="44.58559" lon="0.87872">
        <ele>161</ele>
        <time>2020-12-13T21:36:12Z</time>
      </trkpt>
      <trkpt lat="44.58646" lon="0.87913">
        <ele>154</ele>
        <time>2020-12-13T21:36:33Z</time>
      </trkpt>
      <trkpt lat="44.58718" lon="0.87907">
        <ele>158</ele>
        <time>2020-12-13T21:36:50Z</time>
      </trkpt>
      <trkpt lat="44.58787" lon="0.87926">
        <ele>159</ele>
        <time>2020-12-13T21:37:06Z</time>
      </trkpt>
      <trkpt lat="44.58851" lon="0.8799">
        <ele>156</ele>
        <time>2020-12-13T21:37:25Z</time>
      </trkpt>
      <trkpt lat="44.58888" lon="0.88066">
        <ele>154</ele>
        <time>2020-12-13T21:37:40Z</time>
      </trkpt>
      <trkpt lat="44.58897" lon="0.88072">
        <ele>154</ele>
        <time>2020-12-13T21:37:42Z</time>
      </trkpt>
      <trkpt lat="44.5896" lon="0.88141">
        <ele>160</ele>
        <time>2020-12-13T21:38:01Z</time>
      </trkpt>
      <trkpt lat="44.5899" lon="0.88184">
        <ele>162</ele>
        <time>2020-12-13T21:38:11Z</time>
      </trkpt>
      <trkpt lat="44.5909" lon="0.88146">
        <ele>171</ele>
        <time>2020-12-13T21:38:35Z</time>
      </trkpt>
      <trkpt lat="44.59148" lon="0.88082">
        <ele>177</ele>
        <time>2020-12-13T21:38:53Z</time>
      </trkpt>
      <trkpt lat="44.592" lon="0.87949">
        <ele>189</ele>
        <time>2020-12-13T21:39:18Z</time>
      </trkpt>
      <trkpt lat="44.59276" lon="0.87867">
        <ele>194</ele>
        <time>2020-12-13T21:39:40Z</time>
      </trkpt>
      <trkpt lat="44.59386" lon="0.87811">
        <ele>197</ele>
        <time>2020-12-13T21:40:07Z</time>
      </trkpt>
      <trkpt lat="44.59435" lon="0.87721">
        <ele>193</ele>
        <time>2020-12-13T21:40:26Z</time>
      </trkpt>
      <trkpt lat="44.59484" lon="0.87652">
        <ele>192</ele>
        <time>2020-12-13T21:40:43Z</time>
      </trkpt>
      <trkpt lat="44.5949" lon="0.87618">
        <ele>192</ele>
        <time>2020-12-13T21:40:48Z</time>
      </trkpt>
      <trkpt lat="44.59578" lon="0.877">
        <ele>197</ele>
        <time>2020-12-13T21:41:13Z</time>
      </trkpt>
      <trkpt lat="44.59621" lon="0.87631">
        <ele>197</ele>
        <time>2020-12-13T21:41:28Z</time>
      </trkpt>
      <trkpt lat="44.59637" lon="0.87549">
        <ele>190</ele>
        <time>2020-12-13T21:41:42Z</time>
      </trkpt>
      <trkpt lat="44.59661" lon="0.87494">
        <ele>184</ele>
        <time>2020-12-13T21:41:53Z</time>
      </trkpt>
      <trkpt lat="44.59704" lon="0.87468">
        <ele>183</ele>
        <time>2020-12-13T21:42:04Z</time>
      </trkpt>
      <trkpt lat="44.59743" lon="0.87412">
        <ele>178</ele>
        <time>2020-12-13T21:42:17Z</time>
      </trkpt>
      <trkpt lat="44.59771" lon="0.87365">
        <ele>179</ele>
        <time>2020-12-13T21:42:27Z</time>
      </trkpt>
      <trkpt lat="44.59786" lon="0.87339">
        <ele>178</ele>
        <time>2020-12-13T21:42:33Z</time>
      </trkpt>
      <trkpt lat="44.59826" lon="0.87249">
        <ele>173</ele>
        <time>2020-12-13T21:42:50Z</time>
      </trkpt>
      <trkpt lat="44.59887" lon="0.87185">
        <ele>169</ele>
        <time>2020-12-13T21:43:08Z</time>
      </trkpt>
      <trkpt lat="44.59951" lon="0.87198">
        <ele>167</ele>
        <time>2020-12-13T21:43:23Z</time>
      </trkpt>
      <trkpt lat="44.59994" lon="0.87301">
        <ele>167</ele>
        <time>2020-12-13T21:43:43Z</time>
      </trkpt>
      <trkpt lat="44.60012" lon="0.87296">
        <ele>165</ele>
        <time>2020-12-13T21:43:48Z</time>
      </trkpt>
      <trkpt lat="44.60144" lon="0.87331">
        <ele>158</ele>
        <time>2020-12-13T21:44:19Z</time>
      </trkpt>
      <trkpt lat="44.60248" lon="0.87339">
        <ele>158</ele>
        <time>2020-12-13T21:44:43Z</time>
      </trkpt>
      <trkpt lat="44.603" lon="0.87378">
        <ele>160</ele>
        <time>2020-12-13T21:44:57Z</time>
      </trkpt>
      <trkpt lat="44.60342" lon="0.87429">
        <ele>164</ele>
        <time>2020-12-13T21:45:10Z</time>
      </trkpt>
      <trkpt lat="44.60404" lon="0.87528">
        <ele>169</ele>
        <time>2020-12-13T21:45:32Z</time>
      </trkpt>
      <trkpt lat="44.60455" lon="0.87665">
        <ele>176</ele>
        <time>2020-12-13T21:45:58Z</time>
      </trkpt>
      <trkpt lat="44.60486" lon="0.87747">
        <ele>179</ele>
        <time>2020-12-13T21:46:13Z</time>
      </trkpt>
      <trkpt lat="44.60547" lon="0.87764">
        <ele>176</ele>
        <time>2020-12-13T21:46:28Z</time>
      </trkpt>
      <trkpt lat="44.60578" lon="0.87867">
        <ele>184</ele>
        <time>2020-12-13T21:46:46Z</time>
      </trkpt>
      <trkpt lat="44.60593" lon="0.87914">
        <ele>187</ele>
        <time>2020-12-13T21:46:55Z</time>
      </trkpt>
      <trkpt lat="44.60645" lon="0.88052">
        <ele>193</ele>
        <time>2020-12-13T21:47:21Z</time>
      </trkpt>
      <trkpt lat="44.60694" lon="0.88146">
        <ele>199</ele>
        <time>2020-12-13T21:47:40Z</time>
      </trkpt>
      <trkpt lat="44.60798" lon="0.88172">
        <ele>199</ele>
        <time>2020-12-13T21:48:05Z</time>
      </trkpt>
      <trkpt lat="44.6084" lon="0.8818">
        <ele>200</ele>
        <time>2020-12-13T21:48:15Z</time>
      </trkpt>
      <trkpt lat="44.60843" lon="0.88309">
        <ele>209</ele>
        <time>2020-12-13T21:48:36Z</time>
      </trkpt>
      <trkpt lat="44.60889" lon="0.88356">
        <ele>210</ele>
        <time>2020-12-13T21:48:49Z</time>
      </trkpt>
      <trkpt lat="44.60963" lon="0.88386">
        <ele>209</ele>
        <time>2020-12-13T21:49:07Z</time>
      </trkpt>
      <trkpt lat="44.61005" lon="0.88481">
        <ele>200</ele>
        <time>2020-12-13T21:49:26Z</time>
      </trkpt>
      <trkpt lat="44.61042" lon="0.88571">
        <ele>194</ele>
        <time>2020-12-13T21:49:43Z</time>
      </trkpt>
      <trkpt lat="44.61015" lon="0.88768">
        <ele>192</ele>
        <time>2020-12-13T21:50:17Z</time>
      </trkpt>
      <trkpt lat="44.60938" lon="0.88824">
        <ele>188</ele>
        <time>2020-12-13T21:50:37Z</time>
      </trkpt>
      <trkpt lat="44.60871" lon="0.88867">
        <ele>187</ele>
        <time>2020-12-13T21:50:54Z</time>
      </trkpt>
      <trkpt lat="44.60834" lon="0.88906">
        <ele>189</ele>
        <time>2020-12-13T21:51:05Z</time>
      </trkpt>
      <trkpt lat="44.60721" lon="0.88953">
        <ele>186</ele>
        <time>2020-12-13T21:51:32Z</time>
      </trkpt>
      <trkpt lat="44.60596" lon="0.88996">
        <ele>182</ele>
        <time>2020-12-13T21:52:02Z</time>
      </trkpt>
      <trkpt lat="44.60345" lon="0.89193">
        <ele>173</ele>
        <time>2020-12-13T21:53:10Z</time>
      </trkpt>
      <trkpt lat="44.60254" lon="0.89227">
        <ele>173</ele>
        <time>2020-12-13T21:53:32Z</time>
      </trkpt>
      <trkpt lat="44.60168" lon="0.893">
        <ele>172</ele>
        <time>2020-12-13T21:53:55Z</time>
      </trkpt>
      <trkpt lat="44.60116" lon="0.89326">
        <ele>175</ele>
        <time>2020-12-13T21:54:08Z</time>
      </trkpt>
      <trkpt lat="44.60119" lon="0.89395">
        <ele>172</ele>
        <time>2020-12-13T21:54:19Z</time>
        <extensions>
          <visugpx:TrkExtension xmlns:visugpx="https://www.visugpx.com/editgpx/">
            <visugpx:node>1</visugpx:node>
            </visugpx:TrkExtension>
        </extensions>
      </trkpt>
    </trkseg>
  </trk>
</gpx>